Time;durP1;ratioP1;P1;durP2;ratioP2;P2;SDS_P1;SDS_P2;PMS_P1;PMS_P2;Temp;Humidity;BMP_temperature;BMP_pressure;BME280_temperature;BME280_humidity;BME280_pressure;Samples;Min_cycle;Max_cycle;Signal;HPM_P1;HPM_P2
2022/08/14 00:01:04;;;;;;;29.13;16.00;;;;;;;18.61;100.00;94176.63;6304341;22;20250;-77
2022/08/14 00:03:39;;;;;;;23.07;16.27;;;;;;;18.59;100.00;94164.81;6304577;22;20163;-77
2022/08/14 00:06:21;;;;;;;19.37;15.70;;;;;;;18.60;100.00;94166.41;6304333;22;20573;-78
2022/08/14 00:08:51;;;;;;;21.17;16.05;;;;;;;18.65;100.00;94161.06;6304490;22;20178;-76
2022/08/14 00:11:20;;;;;;;21.25;15.90;;;;;;;18.74;100.00;94167.31;6304363;22;20164;-76
2022/08/14 00:13:52;;;;;;;21.10;15.70;;;;;;;18.67;100.00;94153.72;6304243;22;20935;-75
2022/08/14 00:16:22;;;;;;;21.90;15.20;;;;;;;18.68;100.00;94155.25;6304237;22;20623;-75
2022/08/14 00:19:00;;;;;;;23.08;16.20;;;;;;;18.66;100.00;94145.03;6304393;22;20269;-75
2022/08/14 00:21:28;;;;;;;22.67;15.98;;;;;;;18.55;100.00;94150.66;6304240;22;20195;-75
2022/08/14 00:23:55;;;;;;;23.63;16.33;;;;;;;18.63;100.00;94144.78;6303334;22;20202;-74
2022/08/14 00:26:24;;;;;;;24.60;16.30;;;;;;;18.58;100.00;94155.38;6304680;22;20164;-75
2022/08/14 00:28:54;;;;;;;27.03;17.23;;;;;;;18.44;100.00;94146.56;6304435;22;20229;-77
2022/08/14 00:31:23;;;;;;;25.33;16.63;;;;;;;18.36;100.00;94152.38;6304961;22;20561;-75
2022/08/14 00:33:51;;;;;;;26.07;17.23;;;;;;;18.38;100.00;94158.19;6303602;22;20178;-75
2022/08/14 00:36:18;;;;;;;26.20;17.37;;;;;;;18.43;100.00;94153.66;6303568;22;20168;-75
2022/08/14 00:38:47;;;;;;;24.13;16.07;;;;;;;18.48;100.00;94156.25;6302703;22;20241;-76
2022/08/14 00:41:14;;;;;;;22.47;15.73;;;;;;;18.55;100.00;94161.19;6303795;22;20164;-76
2022/08/14 00:43:41;;;;;;;24.03;17.33;;;;;;;18.62;100.00;94157.16;6303937;22;20187;-76
2022/08/14 00:46:13;;;;;;;21.60;16.60;;;;;;;18.67;100.00;94151.84;6304376;22;20163;-77
2022/08/14 00:48:42;;;;;;;25.27;16.73;;;;;;;18.73;100.00;94149.16;6303881;22;20499;-77
2022/08/14 00:51:11;;;;;;;26.30;18.07;;;;;;;18.76;100.00;94152.00;6304256;22;20168;-77
2022/08/14 00:53:41;;;;;;;29.97;18.93;;;;;;;18.76;100.00;94144.09;6304311;22;20164;-77
2022/08/14 00:56:11;;;;;;;25.83;18.57;;;;;;;18.75;100.00;94136.50;6303008;22;20164;-77
2022/08/14 00:58:39;;;;;;;31.43;19.43;;;;;;;18.74;100.00;94138.34;6304417;22;20222;-77
2022/08/14 01:01:11;;;;;;;26.37;18.50;;;;;;;18.70;100.00;94129.41;6304485;22;20225;-77
2022/08/14 01:09:12;;;;;;;21.08;16.35;;;;;;;18.67;100.00;94117.59;6303093;22;20198;-75
2022/08/14 01:11:44;;;;;;;21.95;16.85;;;;;;;18.72;100.00;94129.16;6303465;22;20171;-75
2022/08/14 01:14:14;;;;;;;25.02;15.60;;;;;;;18.71;100.00;94125.72;6304410;22;20610;-75
2022/08/14 01:16:52;;;;;;;23.38;17.00;;;;;;;18.69;100.00;94120.75;6303521;22;20172;-75
2022/08/14 01:22:08;;;;;;;22.75;16.60;;;;;;;18.67;100.00;94114.22;6303769;22;20174;-74
2022/08/14 01:24:35;;;;;;;25.80;16.33;;;;;;;18.50;100.00;94113.84;6303883;22;20156;-75
2022/08/14 01:27:04;;;;;;;20.55;15.02;;;;;;;18.58;100.00;94108.78;6303209;22;20511;-75
2022/08/14 01:29:36;;;;;;;20.37;14.87;;;;;;;18.56;100.00;94110.91;6304208;22;20236;-76
2022/08/14 01:32:07;;;;;;;21.20;14.33;;;;;;;18.59;100.00;94120.88;6304348;22;20149;-75
2022/08/14 01:34:42;;;;;;;19.23;13.77;;;;;;;18.50;100.00;94119.91;6303848;22;20160;-74
2022/08/14 01:37:12;;;;;;;20.55;14.35;;;;;;;18.55;100.00;94122.50;6304426;22;20241;-75
2022/08/14 01:39:41;;;;;;;17.52;13.93;;;;;;;18.45;100.00;94114.69;6300141;22;20215;-75
2022/08/14 01:42:10;;;;;;;18.50;13.98;;;;;;;18.40;100.00;94120.00;6303357;22;20529;-75
2022/08/14 01:44:39;;;;;;;19.33;13.97;;;;;;;18.35;100.00;94114.78;6303725;22;20238;-75
2022/08/14 01:47:12;;;;;;;18.27;14.10;;;;;;;18.44;100.00;94117.59;6303887;22;20172;-76
2022/08/14 01:49:42;;;;;;;23.50;14.93;;;;;;;18.42;100.00;94117.06;6303781;22;20160;-75
2022/08/14 01:52:11;;;;;;;18.17;14.38;;;;;;;18.42;100.00;94112.59;6303932;22;20628;-75
2022/08/14 01:54:39;;;;;;;20.60;15.13;;;;;;;18.45;100.00;94114.69;6304016;22;20164;-76
2022/08/14 01:57:09;;;;;;;22.10;14.75;;;;;;;18.44;100.00;94105.19;6304049;22;20168;-76
2022/08/14 01:59:39;;;;;;;21.83;14.57;;;;;;;18.36;100.00;94097.13;6275564;22;20188;-76
2022/08/14 02:02:13;;;;;;;20.30;15.10;;;;;;;18.36;100.00;94107.66;6303893;22;20168;-76
2022/08/14 02:04:43;;;;;;;19.43;14.73;;;;;;;18.41;100.00;94105.00;6276456;22;20173;-76
2022/08/14 02:07:12;;;;;;;18.47;14.37;;;;;;;18.45;100.00;94116.53;6304191;22;20489;-76
2022/08/14 02:09:45;;;;;;;26.70;14.90;;;;;;;18.41;100.00;94110.25;6289749;22;20165;-76
2022/08/14 02:12:18;;;;;;;18.90;14.10;;;;;;;18.46;100.00;94108.34;6303288;22;20239;-76
2022/08/14 02:14:49;;;;;;;21.00;15.23;;;;;;;18.43;100.00;94106.28;6302916;22;20168;-77
2022/08/14 02:17:22;;;;;;;28.42;15.90;;;;;;;18.47;100.00;94109.16;6304057;22;20214;-77
2022/08/14 02:19:50;;;;;;;24.57;16.87;;;;;;;18.32;100.00;94109.31;6303867;22;20199;-77
2022/08/14 02:22:20;;;;;;;24.10;15.82;;;;;;;18.33;100.00;94103.75;6302701;22;20500;-77
2022/08/14 02:24:56;;;;;;;28.13;16.93;;;;;;;18.33;100.00;94105.59;6304012;22;20152;-76
2022/08/14 02:27:28;;;;;;;23.83;16.57;;;;;;;18.31;100.00;94098.00;6303213;22;20167;-76
2022/08/14 02:29:56;;;;;;;28.60;16.60;;;;;;;18.38;100.00;94101.09;6304112;22;20222;-76
2022/08/14 02:32:23;;;;;;;27.57;16.40;;;;;;;18.36;100.00;94100.56;6303346;22;20172;-75
2022/08/14 02:34:50;;;;;;;24.20;16.80;;;;;;;18.32;100.00;94104.03;6304177;22;20164;-76
2022/08/14 02:37:19;;;;;;;26.63;17.50;;;;;;;18.36;100.00;94095.28;6302614;22;20688;-76
2022/08/14 02:39:49;;;;;;;25.20;16.80;;;;;;;18.38;100.00;94090.56;6300092;22;20631;-76
2022/08/14 02:42:20;;;;;;;26.07;17.00;;;;;;;18.45;100.00;94096.25;6303707;22;20226;-76
2022/08/14 02:44:51;;;;;;;25.80;16.73;;;;;;;18.43;100.00;94098.38;6303110;22;20698;-76
2022/08/14 02:47:19;;;;;;;29.37;17.60;;;;;;;18.47;100.00;94099.38;6304413;22;20164;-76
2022/08/14 02:49:48;;;;;;;29.50;17.23;;;;;;;18.44;100.00;94091.28;6305309;22;20168;-76
2022/08/14 02:52:20;;;;;;;31.70;17.93;;;;;;;18.36;100.00;94097.13;6305358;22;20647;-76
2022/08/14 02:54:49;;;;;;;24.93;17.67;;;;;;;18.37;100.00;94094.25;6304883;22;20171;-76
2022/08/14 02:57:20;;;;;;;29.60;17.48;;;;;;;18.38;100.00;94097.66;6305425;22;20511;-76
2022/08/14 03:02:32;;;;;;;29.37;17.40;;;;;;;18.27;100.00;94102.22;6305244;22;20164;-76
2022/08/14 03:05:04;;;;;;;30.03;18.23;;;;;;;18.11;100.00;94093.72;6304258;22;20708;-76
2022/08/14 03:07:42;;;;;;;32.63;19.67;;;;;;;18.01;100.00;94093.81;6306088;22;20199;-76
2022/08/14 03:10:10;;;;;;;32.97;18.57;;;;;;;17.99;100.00;94092.50;6301411;22;20160;-76
2022/08/14 03:12:45;;;;;;;30.07;19.60;;;;;;;18.00;100.00;94110.66;6305243;22;20248;-76
2022/08/14 03:15:13;;;;;;;32.20;20.80;;;;;;;17.86;100.00;94101.84;6305217;22;20156;-76
2022/08/14 03:17:43;;;;;;;33.13;20.30;;;;;;;17.84;100.00;94090.81;6305049;22;20172;-77
2022/08/14 03:20:12;;;;;;;30.23;20.30;;;;;;;17.87;100.00;94090.25;6302901;22;20877;-77
2022/08/14 03:22:45;;;;;;;31.07;20.20;;;;;;;17.89;100.00;94097.88;6303058;22;20200;-76
2022/08/14 03:25:14;;;;;;;32.83;21.03;;;;;;;17.99;100.00;94093.31;6303854;22;20213;-76
2022/08/14 03:27:41;;;;;;;31.47;22.23;;;;;;;17.80;100.00;94102.16;6304603;22;20168;-76
2022/08/14 03:30:11;;;;;;;36.40;24.20;;;;;;;17.50;100.00;94100.50;6305075;22;20172;-76
2022/08/14 03:32:42;;;;;;;36.80;23.87;;;;;;;17.46;100.00;94102.91;6305111;22;20172;-76
2022/08/14 03:35:13;;;;;;;36.67;24.67;;;;;;;17.21;100.00;94110.94;6305477;22;20153;-76
2022/08/14 03:37:45;;;;;;;38.90;24.47;;;;;;;17.06;100.00;94103.16;6304997;22;20615;-76
2022/08/14 03:40:14;;;;;;;39.53;24.17;;;;;;;16.94;100.00;94098.22;6304968;22;20810;-77
2022/08/14 03:42:43;;;;;;;41.27;24.00;;;;;;;16.99;100.00;94107.94;6304492;22;20160;-76
2022/08/14 03:45:11;;;;;;;38.77;24.27;;;;;;;17.11;100.00;94097.91;6304708;22;20168;-76
2022/08/14 03:47:40;;;;;;;33.47;24.00;;;;;;;17.26;100.00;94102.25;6304096;22;20164;-77
2022/08/14 03:50:09;;;;;;;32.40;23.47;;;;;;;17.34;100.00;94109.56;6305137;22;20195;-77
2022/08/14 03:52:39;;;;;;;40.17;24.10;;;;;;;17.45;100.00;94105.81;6304742;22;20247;-76
2022/08/14 03:55:11;;;;;;;33.07;23.43;;;;;;;17.48;100.00;94108.69;6304692;22;20168;-76
2022/08/14 03:57:43;;;;;;;36.17;24.30;;;;;;;17.50;100.00;94103.13;6304830;22;20153;-78
2022/08/14 04:00:13;;;;;;;36.60;25.30;;;;;;;17.53;100.00;94097.34;6301752;22;20198;-79
2022/08/14 04:02:41;;;;;;;45.20;27.83;;;;;;;17.63;100.00;94104.41;6304732;22;20168;-78
2022/08/14 04:05:11;;;;;;;37.00;25.73;;;;;;;17.70;100.00;94100.38;6304378;22;20172;-78
2022/08/14 04:07:39;;;;;;;37.10;26.40;;;;;;;17.76;100.00;94106.38;6303501;22;20160;-79
2022/08/14 04:10:12;;;;;;;40.07;26.30;;;;;;;17.81;100.00;94112.38;6304504;22;20489;-79
2022/08/14 04:12:42;;;;;;;44.80;28.93;;;;;;;17.87;100.00;94108.66;6304802;22;20153;-78
2022/08/14 04:15:13;;;;;;;42.70;29.27;;;;;;;17.93;100.00;94120.69;6304878;22;20164;-81
2022/08/14 04:17:42;;;;;;;41.10;28.00;;;;;;;17.94;100.00;94119.66;6305270;22;20239;-78
2022/08/14 04:20:11;;;;;;;39.97;27.27;;;;;;;17.97;100.00;94107.78;6303540;22;20234;-79
2022/08/14 04:22:42;;;;;;;41.20;27.77;;;;;;;18.05;100.00;94113.22;6303568;22;20192;-79
2022/08/14 04:25:11;;;;;;;44.03;27.97;;;;;;;18.17;100.00;94114.69;6304822;22;20168;-79
2022/08/14 04:27:39;;;;;;;36.80;26.93;;;;;;;18.20;100.00;94116.78;6304103;22;20169;-79
2022/08/14 04:30:07;;;;;;;37.97;27.00;;;;;;;18.18;100.00;94101.28;6305264;22;20229;-79
2022/08/14 04:32:34;;;;;;;39.03;25.90;;;;;;;18.25;100.00;94119.34;6304392;22;20171;-79
2022/08/14 04:35:05;;;;;;;38.77;27.37;;;;;;;18.29;100.00;94115.13;6305214;22;20207;-79
2022/08/14 04:45:47;;;;;;;38.60;26.83;;;;;;;18.21;100.00;94118.34;6304421;22;20567;-78
2022/08/14 04:48:15;;;;;;;36.33;26.03;;;;;;;18.18;100.00;94111.81;6303745;22;20207;-78
2022/08/14 04:50:46;;;;;;;37.77;26.27;;;;;;;18.18;100.00;94116.28;6304166;22;20168;-78
2022/08/14 04:53:16;;;;;;;35.33;25.53;;;;;;;18.16;100.00;94116.53;6304368;22;20152;-78
2022/08/14 04:55:47;;;;;;;37.10;25.87;;;;;;;18.20;100.00;94109.69;6301390;22;20168;-79
2022/08/14 04:58:14;;;;;;;39.60;25.40;;;;;;;18.33;100.00;94109.00;6303995;22;20662;-79
2022/08/14 05:00:42;;;;;;;33.67;23.57;;;;;;;18.39;100.00;94115.78;6304212;22;20191;-79
2022/08/14 05:03:11;;;;;;;33.27;22.37;;;;;;;18.45;100.00;94117.31;6304235;22;20171;-79
2022/08/14 05:05:38;;;;;;;31.73;21.63;;;;;;;18.54;100.00;94110.41;6304216;22;20561;-79
2022/08/14 05:08:11;;;;;;;33.03;22.50;;;;;;;18.58;100.00;94113.25;6303741;22;20160;-78
2022/08/14 05:10:42;;;;;;;32.28;22.30;;;;;;;18.61;100.00;94108.19;6303378;22;20180;-78
2022/08/14 05:13:12;;;;;;;32.83;23.53;;;;;;;18.56;100.00;94102.22;6304305;22;20171;-78
2022/08/14 05:15:45;;;;;;;30.83;21.83;;;;;;;18.59;100.00;94112.19;6303801;22;20156;-78
2022/08/14 05:18:16;;;;;;;31.15;22.33;;;;;;;18.58;100.00;94111.41;6303742;22;20153;-78
2022/08/14 05:20:47;;;;;;;28.13;21.65;;;;;;;18.68;100.00;94105.22;6303227;22;20506;-77
2022/08/14 05:23:18;;;;;;;27.20;20.63;;;;;;;18.75;100.00;94112.81;6302900;22;20195;-78
2022/08/14 05:25:46;;;;;;;25.67;18.95;;;;;;;18.68;100.00;94119.19;6303646;22;20156;-78
2022/08/14 05:28:18;;;;;;;23.37;18.07;;;;;;;18.64;100.00;94120.81;6303527;22;20168;-79
2022/08/14 05:30:46;;;;;;;23.50;18.13;;;;;;;18.69;100.00;94120.75;6303761;22;20180;-78
2022/08/14 05:33:13;;;;;;;21.50;16.67;;;;;;;18.68;100.00;94116.56;6303316;22;20176;-78
2022/08/14 05:35:40;;;;;;;23.70;16.93;;;;;;;18.54;100.00;94107.78;6303864;22;20175;-79
2022/08/14 05:38:09;;;;;;;21.87;16.73;;;;;;;18.66;100.00;94116.06;6303324;22;20171;-79
2022/08/14 05:40:35;;;;;;;20.65;15.70;;;;;;;18.68;100.00;94115.75;6303776;22;20191;-79
2022/08/14 05:43:02;;;;;;;24.00;15.53;;;;;;;18.77;100.00;94121.19;6303933;22;20191;-79
2022/08/14 05:45:31;;;;;;;22.02;16.42;;;;;;;18.75;100.00;94118.06;6303437;22;20202;-78
2022/08/14 05:48:01;;;;;;;19.58;16.55;;;;;;;18.71;100.00;94115.19;6303866;22;20172;-78
2022/08/14 05:50:28;;;;;;;22.13;16.77;;;;;;;18.66;100.00;94120.53;6303720;22;20156;-79
2022/08/14 05:52:55;;;;;;;20.73;17.27;;;;;;;18.71;100.00;94115.19;6303760;22;20602;-79
2022/08/14 05:55:22;;;;;;;26.58;18.83;;;;;;;18.81;100.00;94119.56;6303756;22;20286;-78
2022/08/14 05:57:51;;;;;;;20.52;16.33;;;;;;;18.65;100.00;94113.69;6303317;22;20203;-78
2022/08/14 06:00:20;;;;;;;23.35;16.23;;;;;;;18.62;100.00;94122.16;6303913;22;20245;-79
2022/08/14 06:02:49;;;;;;;21.40;16.40;;;;;;;18.51;100.00;94115.44;6303320;22;20177;-78
2022/08/14 06:05:15;;;;;;;21.33;15.40;;;;;;;18.51;100.00;94110.97;6303576;22;20176;-78
2022/08/14 06:07:42;;;;;;;19.07;14.97;;;;;;;18.57;100.00;94116.94;6303995;22;20164;-79
2022/08/14 06:10:11;;;;;;;19.07;14.43;;;;;;;18.53;100.00;94115.94;6303672;22;20164;-79
2022/08/14 06:12:38;;;;;;;24.63;14.83;;;;;;;18.59;100.00;94126.13;6303079;22;20620;-79
2022/08/14 06:15:09;;;;;;;18.30;15.23;;;;;;;18.65;100.00;94130.28;6302955;22;20174;-79
2022/08/14 06:17:44;;;;;;;17.43;13.97;;;;;;;18.67;100.00;94136.03;6303223;22;20165;-78
2022/08/14 06:20:13;;;;;;;15.63;13.10;;;;;;;18.72;100.00;94126.53;6303116;22;20179;-81
2022/08/14 06:22:40;;;;;;;17.33;13.87;;;;;;;18.70;100.00;94132.06;6304512;22;20283;-81
2022/08/14 06:25:09;;;;;;;20.98;14.00;;;;;;;18.71;100.00;94144.16;6305187;22;20611;-79
2022/08/14 06:27:38;;;;;;;18.60;14.53;;;;;;;18.76;100.00;94138.06;6305566;22;20168;-80
2022/08/14 06:30:09;;;;;;;16.80;13.60;;;;;;;18.71;100.00;94128.38;6306121;22;20160;-80
2022/08/14 06:32:36;;;;;;;18.67;13.87;;;;;;;18.70;100.00;94138.09;6305006;22;20157;-82
2022/08/14 06:35:05;;;;;;;17.10;14.20;;;;;;;18.72;100.00;94144.94;6305461;22;20165;-78
2022/08/14 06:37:41;;;;;;;16.85;14.23;;;;;;;18.74;100.00;94135.72;6304664;22;20168;-77
2022/08/14 06:40:09;;;;;;;17.77;14.50;;;;;;;18.81;100.00;94140.66;6305127;22;20176;-78
2022/08/14 06:42:36;;;;;;;19.05;13.90;;;;;;;18.82;100.00;94142.19;6305440;22;20164;-78
2022/08/14 06:45:04;;;;;;;19.13;13.88;;;;;;;18.84;100.00;94140.88;6304981;22;20195;-78
2022/08/14 06:47:33;;;;;;;16.25;13.50;;;;;;;18.82;100.00;94142.19;6305448;22;20169;-78
2022/08/14 06:50:00;;;;;;;18.55;14.10;;;;;;;18.86;100.00;94151.09;6305239;22;20171;-77
2022/08/14 06:52:27;;;;;;;18.70;13.82;;;;;;;18.82;100.00;94150.09;6305904;22;20517;-79
2022/08/14 06:54:56;;;;;;;14.82;11.27;;;;;;;18.86;100.00;94149.25;6306593;22;20170;-79
2022/08/14 06:57:23;;;;;;;15.30;11.45;;;;;;;18.88;100.00;94146.34;6306490;22;20171;-75
2022/08/14 06:59:50;;;;;;;12.00;10.52;;;;;;;18.85;100.00;94145.06;6305606;22;20245;-76
2022/08/14 07:07:46;;;;;;;11.38;9.93;;;;;;;18.95;100.00;94144.16;6305792;22;20684;-74
2022/08/14 07:10:14;;;;;;;12.00;9.10;;;;;;;18.93;100.00;94136.53;6306272;22;20168;-76
2022/08/14 07:12:41;;;;;;;14.88;10.20;;;;;;;18.94;100.00;94139.94;6305928;22;20164;-75
2022/08/14 07:15:10;;;;;;;23.50;16.02;;;;;;;18.93;100.00;94135.75;6305846;22;20168;-77
2022/08/14 07:17:46;;;;;;;24.00;16.13;;;;;;;18.95;100.00;94139.69;6307191;22;20169;-77
2022/08/14 07:20:13;;;;;;;15.27;10.52;;;;;;;18.93;100.00;94138.41;6306070;22;20237;-80
2022/08/14 07:22:40;;;;;;;14.25;9.80;;;;;;;18.84;100.00;94146.13;6306101;22;20670;-79
2022/08/14 07:25:07;;;;;;;13.70;9.82;;;;;;;18.88;100.00;94152.38;6305927;22;20153;-79
2022/08/14 07:27:36;;;;;;;14.48;10.15;;;;;;;18.74;100.00;94145.44;6305597;22;20168;-80
2022/08/14 07:30:04;;;;;;;13.63;9.98;;;;;;;18.70;100.00;94139.94;6305732;22;20168;-77
2022/08/14 07:32:30;;;;;;;14.93;13.17;;;;;;;18.83;100.00;94141.94;6305721;22;20183;-78
2022/08/14 07:34:57;;;;;;;15.00;12.10;;;;;;;18.91;100.00;94138.66;6305120;22;20168;-75
2022/08/14 07:37:24;;;;;;;27.95;21.25;;;;;;;18.95;100.00;94147.59;6306126;22;20187;-77
2022/08/14 07:39:51;;;;;;;24.73;20.25;;;;;;;18.88;100.00;94152.38;6304871;22;20631;-77
2022/08/14 07:42:18;;;;;;;28.98;20.70;;;;;;;18.90;100.00;94155.53;6305474;22;20164;-77
2022/08/14 07:44:47;;;;;;;17.65;13.75;;;;;;;18.93;100.00;94143.66;6305777;22;20498;-76
2022/08/14 07:47:14;;;;;;;15.38;12.45;;;;;;;19.08;100.00;94146.09;6305941;22;20165;-77
2022/08/14 07:49:42;;;;;;;11.18;9.73;;;;;;;19.13;100.00;94148.69;6305688;22;20160;-86
2022/08/14 07:52:09;;;;;;;11.02;9.30;;;;;;;19.17;100.00;94153.09;6306591;22;20164;-78
2022/08/14 07:54:36;;;;;;;9.48;7.88;;;;;;;19.37;100.00;94153.88;6305095;22;20168;-77
2022/08/14 07:57:03;;;;;;;9.98;8.30;;;;;;;19.54;100.00;94154.19;6305686;22;20164;-77
2022/08/14 07:59:29;;;;;;;11.50;8.70;;;;;;;19.60;100.00;94159.13;6305502;22;20275;-80
2022/08/14 08:01:58;;;;;;;8.85;7.18;;;;;;;19.57;100.00;94148.34;6305554;22;20679;-79
2022/08/14 08:04:28;;;;;;;8.10;6.97;;;;;;;19.49;100.00;94157.69;6306231;22;20171;-78
2022/08/14 08:06:55;;;;;;;8.07;7.10;;;;;;;19.51;100.00;94152.16;6305817;22;20516;-78
2022/08/14 08:09:26;;;;;;;6.93;6.03;;;;;;;19.45;100.00;94159.31;6305172;22;20168;-79
2022/08/14 08:11:55;;;;;;;9.05;5.65;;;;;;;19.12;100.00;94155.78;6305508;22;20450;-79
2022/08/14 08:14:22;;;;;;;9.05;6.03;;;;;;;19.15;100.00;94152.59;6306346;22;20518;-82
2022/08/14 08:16:49;;;;;;;7.05;5.93;;;;;;;19.30;100.00;94151.63;6305792;22;20168;-84
2022/08/14 08:19:17;;;;;;;6.90;5.40;;;;;;;19.80;100.00;94152.75;6306046;22;20165;-80
2022/08/14 08:21:45;;;;;;;5.95;5.32;;;;;;;20.17;100.00;94150.03;6305506;22;20188;-82
2022/08/14 08:24:12;;;;;;;8.02;5.40;;;;;;;20.32;100.00;94154.31;6305721;22;20283;-75
2022/08/14 08:26:39;;;;;;;5.28;4.65;;;;;;;20.26;100.00;94158.09;6305398;22;20619;-77
2022/08/14 08:29:06;;;;;;;6.40;5.53;;;;;;;20.22;100.00;94151.84;6305923;22;20168;-81
2022/08/14 08:31:35;;;;;;;5.95;5.20;;;;;;;20.32;100.00;94147.19;6305897;22;20484;-87
2022/08/14 08:34:05;;;;;;;7.68;5.63;;;;;;;20.03;100.00;94136.03;6306576;22;20175;-80
2022/08/14 08:36:40;;;;;;;9.40;5.78;;;;;;;19.90;100.00;94143.91;6305666;22;20207;-84
2022/08/14 08:39:07;;;;;;;7.25;5.78;;;;;;;19.80;100.00;94152.75;6305932;22;20213;-79
2022/08/14 08:41:43;;;;;;;9.38;6.32;;;;;;;19.60;100.00;94145.16;6305530;22;20191;-85
2022/08/14 08:44:09;;;;;;;7.57;6.75;;;;;;;19.61;100.00;94146.72;6305774;22;20630;-77
2022/08/14 08:46:38;;;;;;;9.13;7.40;;;;;;;19.74;100.00;94138.06;6305387;22;20557;-81
2022/08/14 08:49:07;;;;;;;10.68;7.70;;;;;;;19.94;100.00;94148.31;6304553;22;20164;-83
2022/08/14 08:51:38;;;;;;;8.75;7.10;;;;;;;19.96;100.00;94142.75;6304555;22;20164;-77
2022/08/14 08:54:07;;;;;;;9.73;7.88;;;;;;;20.06;100.00;94146.00;6303920;22;20626;-82
2022/08/14 08:56:39;;;;;;;8.80;7.72;;;;;;;20.20;100.00;94146.06;6304553;22;20164;-82
2022/08/14 08:59:21;;;;;;;8.65;7.25;;;;;;;20.32;100.00;94133.97;6304449;22;20164;-83
2022/08/14 09:01:50;;;;;;;9.50;6.63;;;;;;;20.47;100.00;94137.44;6300077;22;20179;-79
2022/08/14 09:04:17;;;;;;;9.77;8.70;;;;;;;20.51;100.00;94143.69;6304025;22;20180;-80
2022/08/14 09:06:47;;;;;;;10.68;6.68;;;;;;;20.35;100.00;94133.41;6303933;22;20164;-79
2022/08/14 09:09:24;;;;;;;8.68;7.68;;;;;;;20.23;100.00;94127.00;6303432;22;20160;-79
2022/08/14 09:11:53;;;;;;;11.55;8.68;;;;;;;20.28;100.00;94122.47;6303485;22;20148;-77
2022/08/14 09:14:20;;;;;;;17.42;13.13;;;;;;;20.49;100.00;94125.50;6303215;22;20164;-77
2022/08/14 09:16:49;;;;;;;12.52;10.55;;;;;;;20.60;100.00;94131.38;6303986;22;20172;-77
2022/08/14 09:19:16;;;;;;;11.65;9.40;;;;;;;20.75;100.00;94125.81;6304247;22;20164;-76
2022/08/14 09:21:47;;;;;;;8.98;7.32;;;;;;;20.88;100.00;94123.16;6303896;22;20242;-77
2022/08/14 09:24:16;;;;;;;6.47;5.85;;;;;;;20.90;100.00;94125.50;6302717;22;20200;-77
2022/08/14 09:26:45;;;;;;;6.95;5.60;;;;;;;21.01;100.00;94126.88;6303519;22;20171;-77
2022/08/14 09:29:18;;;;;;;6.93;5.40;;;;;;;21.13;100.00;94123.75;6303258;22;20164;-76
2022/08/14 09:31:50;;;;;;;6.72;5.38;;;;;;;21.17;100.00;94108.88;6303491;22;20155;-77
2022/08/14 09:34:28;;;;;;;5.80;5.22;;;;;;;21.27;100.00;94119.25;6302152;22;20187;-77
2022/08/14 09:37:18;;;;;;;6.70;5.63;;;;;;;21.25;100.00;94124.03;6303831;22;20164;-77
2022/08/14 09:39:57;;;;;;;5.90;4.85;;;;;;;21.40;100.00;94126.34;6303019;22;20165;-77
2022/08/14 09:42:40;;;;;;;6.85;4.88;;;;;;;21.49;100.00;94130.63;6303221;22;20229;-77
2022/08/14 09:45:29;;;;;;;5.43;4.93;;;;;;;21.66;100.00;94127.34;6302007;22;20203;-73
2022/08/14 09:47:57;;;;;;;7.90;5.18;;;;;;;21.68;100.00;94122.53;6303744;22;20274;-74
2022/08/14 09:50:26;;;;;;;6.05;4.90;;;;;;;21.80;100.00;94119.34;6303910;22;20164;-74
2022/08/14 09:53:10;;;;;;;5.40;4.85;;;;;;;21.82;100.00;94127.75;6304779;22;20168;-83
2022/08/14 09:55:37;;;;;;;4.80;4.40;;;;;;;21.73;100.00;94124.28;6303710;22;20214;-78
2022/08/14 09:58:16;;;;;;;4.85;4.28;;;;;;;21.67;100.00;94120.19;6303769;22;20168;-78
2022/08/14 10:00:58;;;;;;;4.88;4.38;;;;;;;21.77;100.00;94122.59;6301669;22;20513;-76
2022/08/14 10:03:32;;;;;;;7.75;4.53;;;;;;;22.05;100.00;94118.75;6303796;22;20180;-77
2022/08/14 10:06:08;;;;;;;4.15;3.75;;;;;;;22.17;97.97;94118.22;6298799;22;20218;-81
2022/08/14 10:08:45;;;;;;;5.60;4.00;;;;;;;22.41;100.00;94118.66;6303810;22;20557;-77
2022/08/14 10:11:18;;;;;;;6.40;3.80;;;;;;;22.51;95.41;94113.88;6303431;22;20487;-78
2022/08/14 10:13:47;;;;;;;3.92;3.63;;;;;;;22.70;93.57;94120.84;6303205;22;20164;-77
2022/08/14 10:16:15;;;;;;;4.50;3.78;;;;;;;22.83;92.78;94125.28;6303889;22;20174;-77
2022/08/14 10:18:42;;;;;;;4.93;4.20;;;;;;;22.70;92.58;94126.94;6304204;22;20164;-78
2022/08/14 10:21:16;;;;;;;4.40;4.00;;;;;;;22.82;94.00;94124.50;6305115;22;20192;-75
2022/08/14 10:23:48;;;;;;;4.63;3.97;;;;;;;22.82;90.53;94129.00;6305075;22;20233;-82
2022/08/14 10:26:18;;;;;;;3.80;3.50;;;;;;;22.55;91.18;94112.19;6303897;22;20243;-74
2022/08/14 10:28:47;;;;;;;4.15;3.75;;;;;;;22.52;92.41;94110.16;6303069;22;20244;-76
2022/08/14 10:31:19;;;;;;;4.57;3.75;;;;;;;22.63;91.88;94112.53;6303522;22;20183;-76
2022/08/14 10:33:59;;;;;;;4.10;3.70;;;;;;;22.66;92.29;94112.72;6303973;22;20183;-78
2022/08/14 10:36:31;;;;;;;4.07;3.67;;;;;;;22.48;94.12;94106.53;6304180;22;20152;-78
2022/08/14 10:39:03;;;;;;;4.63;3.70;;;;;;;22.54;94.50;94102.66;6304427;22;20202;-79
2022/08/14 10:41:41;;;;;;;4.40;4.00;;;;;;;22.54;92.16;94099.22;6304090;22;20173;-78
2022/08/14 10:44:12;;;;;;;4.65;3.95;;;;;;;22.57;93.78;94101.28;6304313;22;20498;-78
2022/08/14 10:46:45;;;;;;;4.30;3.90;;;;;;;22.67;93.15;94094.97;6304412;22;20237;-77
2022/08/14 10:49:21;;;;;;;4.30;3.90;;;;;;;22.50;92.30;94087.69;6304079;22;20156;-78
2022/08/14 10:52:06;;;;;;;4.38;3.78;;;;;;;22.61;92.97;94084.47;6304412;22;20176;-77
2022/08/14 10:54:38;;;;;;;3.78;3.47;;;;;;;22.70;90.79;94078.44;6304399;22;20159;-78
2022/08/14 10:57:29;;;;;;;4.45;3.80;;;;;;;22.39;90.30;94073.97;6304737;22;20168;-77
2022/08/14 10:59:58;;;;;;;5.13;3.83;;;;;;;22.46;89.61;94076.94;6273687;22;20168;-78
2022/08/14 11:02:29;;;;;;;4.10;3.70;;;;;;;22.56;89.31;94067.94;6304113;22;20192;-77
2022/08/14 11:05:00;;;;;;;4.10;3.58;;;;;;;22.84;89.50;94079.91;6304013;22;20187;-79
2022/08/14 11:07:27;;;;;;;4.30;3.90;;;;;;;23.10;87.82;94066.69;6304185;22;20172;-78
2022/08/14 11:10:01;;;;;;;3.33;3.03;;;;;;;23.21;86.28;94067.94;6305820;22;20198;-78
2022/08/14 11:12:40;;;;;;;4.13;3.60;;;;;;;23.42;86.45;94060.19;6306178;22;20317;-78
2022/08/14 11:15:07;;;;;;;4.68;3.58;;;;;;;23.67;85.55;94054.88;6305676;22;20152;-78
2022/08/14 11:17:35;;;;;;;6.03;3.22;;;;;;;24.22;83.39;94054.16;6305774;22;20171;-77
2022/08/14 11:20:07;;;;;;;5.28;3.42;;;;;;;24.83;84.17;94045.63;6305677;22;20178;-77
2022/08/14 11:22:39;;;;;;;3.80;3.50;;;;;;;25.28;82.15;94048.47;6305566;22;20634;-77
2022/08/14 11:25:11;;;;;;;6.20;3.55;;;;;;;25.35;76.92;94047.94;6305924;22;20159;-78
2022/08/14 11:27:40;;;;;;;11.18;3.70;;;;;;;25.50;75.91;94049.28;6305713;22;20152;-78
2022/08/14 11:30:10;;;;;;;5.50;3.80;;;;;;;25.50;77.25;94051.94;6305946;22;20164;-78
2022/08/14 11:32:39;;;;;;;3.92;3.53;;;;;;;25.49;76.30;94050.38;6305438;22;20612;-76
2022/08/14 11:35:07;;;;;;;4.35;3.53;;;;;;;25.49;75.56;94058.34;6305535;22;20164;-78
2022/08/14 11:37:33;;;;;;;4.07;2.65;;;;;;;25.73;77.31;94050.47;6305118;22;20168;-77
2022/08/14 11:40:03;;;;;;;3.83;3.47;;;;;;;25.86;75.17;94057.41;6305624;22;20166;-77
2022/08/14 11:42:36;;;;;;;4.30;3.90;;;;;;;25.68;74.33;94059.47;6305710;22;20199;-77
2022/08/14 11:45:04;;;;;;;3.85;3.45;;;;;;;25.78;74.04;94058.25;6305698;22;20153;-77
2022/08/14 11:47:37;;;;;;;5.32;3.80;;;;;;;25.82;73.68;94059.97;6304957;22;20168;-78
2022/08/14 11:50:12;;;;;;;3.97;3.58;;;;;;;25.61;73.54;94061.84;6305132;22;20167;-78
2022/08/14 11:52:39;;;;;;;3.92;3.47;;;;;;;25.26;75.37;94061.31;6305400;22;20163;-78
2022/08/14 11:55:11;;;;;;;4.35;3.95;;;;;;;24.75;76.49;94057.06;6305676;22;20168;-78